Nearby METAR Reports

 

KNUQ - Moffett Nas/Mtn, California, USA
Distance from station: N 9mi, 14km
Updated: Wed, 03-Mar-2021 6:35pm PST
Clear
Clear
 Wind from ENE
Wind: ENE 8 mph , 13 km/h
Temperature: 55°F , 13°C
Dew Point: 41°F , 5°C
Humidity: 59%
Barometer: 29.92 inHg , 1013.2 hPa
Clouds: Clear
Visibility: 10 miles , 16 km
2021/03/04 02:35 KNUQ 040235Z AUTO 07007KT 10SM CLR 13/05 A2992 RMK AO2
KSJC - San Jose, California, USA
Distance from station: NE 9mi, 14km
Updated: Wed, 03-Mar-2021 5:53pm PST
Mostly Cloudy
Mostly Cloudy
 Wind from SSW
Wind: SSW 16 mph , 26 km/h, Gust: 23 mph , 37 km/h
Temperature: 57°F , 14°C
Dew Point: 39°F , 4°C
Humidity: 51%
Barometer: 29.89 inHg , 1012.2 hPa
Clouds: Mostly Cloudy
Visibility: 10 miles , 16 km
Cloud details: Few Clouds 800 ft
Partly Cloudy 8000 ft
Mostly Cloudy 20000 ft
2021/03/04 01:53 KSJC 040153Z 20014G20KT 10SM FEW008 SCT080 BKN200 14/04 A2989 RMK AO2 SLP121 T01390044
 
KRHV - San Jose/Reid, California, USA
Distance from station: ENE 12mi, 19km
Updated: Wed, 03-Mar-2021 6:50pm PST
Partly Cloudy
Partly Cloudy
 Wind from SSE
Wind: SSE 13 mph , 20 km/h
Temperature: 55°F , 13°C
Dew Point: 39°F , 4°C
Humidity: 55%
Barometer: 29.92 inHg , 1013.2 hPa
Clouds: Partly Cloudy
Visibility: 10 miles , 16 km
Cloud details: Partly Cloudy 8000 ft
2021/03/04 02:50 KRHV 040250Z 15011KT 10SM SCT080 13/04 A2992
KPAO - Palo Alto, California, USA
Distance from station: NNW 14mi, 23km
Updated: Wed, 03-Mar-2021 6:47pm PST
Partly Cloudy
Partly Cloudy
 Wind from SW
Wind: SW 12 mph , 19 km/h
Temperature: 52°F , 11°C
Dew Point: 41°F , 5°C
Humidity: 67%
Barometer: 29.93 inHg , 1013.5 hPa
Clouds: Partly Cloudy
Visibility: 10 miles , 16 km
Cloud details: Partly Cloudy 6000 ft
2021/03/04 02:47 KPAO 040247Z 23010KT 10SM SCT060 11/05 A2993
 
KSQL - San Carlos Airpo, California, USA
Distance from station: NW 21mi, 34km
Updated: Wed, 03-Mar-2021 6:47pm PST
Mostly Cloudy
Mostly Cloudy
 Wind from varies
Wind: varies 3 mph , 6 km/h
Temperature: 54°F , 12°C
Dew Point: 39°F , 4°C
Humidity: 58%
Barometer: 29.94 inHg , 1013.9 hPa
Clouds: Mostly Cloudy
Visibility: 10 miles , 16 km
Cloud details: Mostly Cloudy 18000 ft
2021/03/04 02:47 KSQL 040247Z VRB03KT 10SM BKN180 12/04 A2994
KWVI - Watsonville, California, USA
Distance from station: SSE 27mi, 44km
Updated: Wed, 03-Mar-2021 5:53pm PST
Few Clouds
Few Clouds
 Wind from WNW
Wind: WNW 6 mph , 9 km/h
Temperature: 52°F , 11°C
Dew Point: 45°F , 7°C
Humidity: 77%
Barometer: 29.95 inHg , 1014.2 hPa
Clouds: Few Clouds
Visibility: 10 miles , 16 km
Cloud details: Few Clouds 1600 ft
2021/03/04 01:53 KWVI 040153Z AUTO 29005KT 10SM FEW016 11/07 A2995 RMK AO2 SLP141 T01110072
 
KHWD - Hayward, California, USA
Distance from station: N 28mi, 44km
Updated: Wed, 03-Mar-2021 5:54pm PST
Clear
Clear
 Wind from W
Wind: W 9 mph , 15 km/h
Temperature: 54°F , 12°C
Dew Point: 43°F , 6°C
Humidity: 67%
Barometer: 29.90 inHg , 1012.5 hPa
Clouds: Clear
Visibility: 10 miles , 16 km
2021/03/04 01:54 KHWD 040154Z 26008KT 10SM CLR 12/06 A2990 RMK AO2 SLP135 T01220056
KSFO - San Francisco, California, USA
Distance from station: NW 30mi, 49km
Updated: Wed, 03-Mar-2021 5:56pm PST
Mostly Cloudy
Mostly Cloudy
 Wind from W
Wind: W 13 mph , 20 km/h
Temperature: 54°F , 12°C
Dew Point: 43°F , 6°C
Humidity: 67%
Barometer: 29.90 inHg , 1012.5 hPa
Clouds: Mostly Cloudy
Visibility: 10 miles , 16 km
Cloud details: Few Clouds 1400 ft
Few Clouds 4500 ft
Mostly Cloudy 18000 ft
2021/03/04 01:56 KSFO 040156Z 28011KT 10SM FEW014 FEW045 BKN180 12/06 A2990 RMK AO2 SLP125 T01220061
 
KHAF - Half Moon Bay, California, USA
Distance from station: WNW 31mi, 50km
Updated: Wed, 03-Mar-2021 6:35pm PST
Haze, Overcast
Haze, Overcast
 Wind from WSW
Wind: WSW 9 mph , 15 km/h
Temperature: 50°F , 10°C
Wind Chill: 46°F , 8°C
Dew Point: 45°F , 7°C
Humidity: 82%
Barometer: 29.96 inHg , 1014.6 hPa
Summary: Haze
Clouds: Overcast
Visibility: 5 miles , 8 km
Cloud details: Overcast 2200 ft
2021/03/04 02:35 KHAF 040235Z AUTO 25008KT 5SM HZ OVC022 10/07 A2996 RMK AO2
KOAK - Oakland, California, USA
Distance from station: NNW 31mi, 50km
Updated: Wed, 03-Mar-2021 5:53pm PST
Mostly Cloudy
Mostly Cloudy
 Wind from W
Wind: W 17 mph , 28 km/h
Temperature: 55°F , 13°C
Dew Point: 45°F , 7°C
Humidity: 67%
Barometer: 29.91 inHg , 1012.9 hPa
Clouds: Mostly Cloudy
Visibility: 10 miles , 16 km
Cloud details: Few Clouds 1500 ft
Mostly Cloudy 20000 ft
2021/03/04 01:53 KOAK 040153Z 27015KT 10SM FEW015 BKN200 13/07 A2991 RMK AO2 SLP128 T01330072
 
KLVK - Livermore, California, USA
Distance from station: NNE 31mi, 51km
Updated: Wed, 03-Mar-2021 5:53pm PST
Clear
Clear
 Wind from W
Wind: W 13 mph , 20 km/h
Temperature: 54°F , 12°C
Dew Point: 43°F , 6°C
Humidity: 67%
Barometer: 29.87 inHg , 1011.5 hPa
Clouds: Clear
Visibility: 10 miles , 16 km
2021/03/04 01:53 KLVK 040153Z 28011KT 10SM CLR 12/06 A2987 RMK AO2 SLP114 T01220056
KCVH - Hollister Muni, California, USA
Distance from station: SE 42mi, 68km
Updated: Wed, 03-Mar-2021 6:35pm PST
Partly Cloudy
Partly Cloudy
 Wind from W
Wind: W 9 mph , 15 km/h
Temperature: 52°F , 11°C
Dew Point: 43°F , 6°C
Humidity: 72%
Barometer: 29.97 inHg , 1014.9 hPa
Clouds: Partly Cloudy
Visibility: 10 miles , 16 km
Cloud details: Mostly Cloudy 2200 ft
Partly Cloudy 2800 ft
2021/03/04 02:35 KCVH 040235Z AUTO 26008KT 10SM BKN022 SCT028 11/06 A2997 RMK A01
 
KSNS - Salinas, California, USA
Distance from station: SSE 48mi, 77km
Updated: Wed, 03-Mar-2021 6:05pm PST
Mostly Cloudy
Mostly Cloudy
 Wind from NW
Wind: NW 12 mph , 19 km/h
Temperature: 54°F , 12°C
Dew Point: 46°F , 8°C
Humidity: 77%
Barometer: 29.95 inHg , 1014.2 hPa
Clouds: Mostly Cloudy
Visibility: 10 miles , 16 km
Cloud details: Partly Cloudy 1600 ft
Mostly Cloudy 2400 ft
2021/03/04 02:05 KSNS 040205Z 31010KT 10SM SCT016 BKN024 12/08 A2995 RMK AO2 T01220083
KMRY - Monterey, California, USA
Distance from station: SSE 49mi, 78km
Updated: Wed, 03-Mar-2021 5:54pm PST
Mostly Cloudy
Mostly Cloudy
 Wind from W
Wind: W 9 mph , 15 km/h
Temperature: 55°F , 13°C
Dew Point: 46°F , 8°C
Humidity: 72%
Barometer: 29.95 inHg , 1014.2 hPa
Clouds: Mostly Cloudy
Visibility: 10 miles , 16 km
Cloud details: Partly Cloudy 1900 ft
Mostly Cloudy 2400 ft
2021/03/04 01:54 KMRY 040154Z 28008KT 10SM SCT019 BKN024 13/08 A2995 RMK AO2 SLP152 T01330083
 
KCCR - Concord, California, USA
Distance from station: N 50mi, 81km
Updated: Wed, 03-Mar-2021 5:53pm PST
Clear
Clear
 Wind from S
Wind: S 14 mph , 22 km/h
Temperature: 55°F , 13°C
Dew Point: 41°F , 5°C
Humidity: 59%
Barometer: 29.86 inHg , 1011.2 hPa
Clouds: Clear
Visibility: 10 miles , 16 km
2021/03/04 01:53 KCCR 040153Z 19012KT 10SM CLR 13/05 A2986 RMK AO2 SLP098 T01330050

Metar display script from Saratoga-Weather.org